Time;durP1;ratioP1;P1;durP2;ratioP2;P2;SDS_P1;SDS_P2;PMS_P1;PMS_P2;Temp;Humidity;BMP_temperature;BMP_pressure;BME280_temperature;BME280_humidity;BME280_pressure;Samples;Min_cycle;Max_cycle;Signal;HPM_P1;HPM_P2
2022/11/17 00:00:25;;;;;;;;;5.33;5.00;;;;;17.81;69.86;99072.34;5056603;28;46143;-75
2022/11/17 00:02:50;;;;;;;;;6.67;4.67;;;;;17.78;69.51;99073.25;5040620;28;45481;-74
2022/11/17 00:05:16;;;;;;;;;4.00;3.67;;;;;17.74;70.70;99081.31;5070939;28;45352;-75
2022/11/17 00:07:47;;;;;;;;;6.33;5.00;;;;;17.65;70.66;99087.66;5065073;28;45659;-74
2022/11/17 00:10:14;;;;;;;;;7.33;4.67;;;;;17.69;69.96;99074.34;5063047;28;46890;-73
2022/11/17 00:15:24;;;;;;;;;6.00;4.33;;;;;17.69;69.88;99055.88;5067132;28;45485;-77
2022/11/17 00:23:22;;;;;;;;;4.33;3.00;;;;;17.65;70.02;99055.97;5047404;28;45378;-76
2022/11/17 00:25:48;;;;;;;;;7.00;5.33;;;;;17.57;70.42;99050.00;5047235;28;45508;-76
2022/11/17 00:28:13;;;;;;;;;5.33;4.33;;;;;17.47;70.91;99051.97;5035570;28;45295;-77
2022/11/17 00:36:07;;;;;;;;;9.67;5.67;;;;;17.56;71.25;99057.03;5036647;28;45517;-77
2022/11/17 00:38:32;;;;;;;;;8.67;7.00;;;;;17.51;71.22;99056.28;5037550;28;45316;-74
2022/11/17 00:40:58;;;;;;;;;8.67;4.33;;;;;17.56;71.20;99072.03;5037505;28;45482;-76
2022/11/17 00:43:23;;;;;;;;;14.00;6.33;;;;;17.53;71.27;99067.69;5037220;28;45312;-77
2022/11/17 00:45:49;;;;;;;;;4.67;4.00;;;;;17.51;70.94;99064.22;5052367;28;45456;-77
2022/11/17 00:48:15;;;;;;;;;6.00;4.33;;;;;17.55;71.05;99064.97;5037592;28;45538;-78
2022/11/17 00:50:41;;;;;;;;;7.33;3.67;;;;;17.59;71.11;99077.25;5048093;28;46213;-77
2022/11/17 00:53:06;;;;;;;;;6.00;4.67;;;;;17.57;71.09;99071.13;5037035;28;45363;-77
2022/11/17 00:55:32;;;;;;;;;8.67;3.67;;;;;17.62;70.90;99071.88;5037719;28;45608;-77
2022/11/17 00:57:57;;;;;;;;;6.67;3.67;;;;;17.62;70.91;99054.25;5052763;28;45617;-77
2022/11/17 01:00:23;;;;;;;;;7.00;5.00;;;;;17.60;71.13;99064.00;5036913;28;46192;-77
2022/11/17 01:02:48;;;;;;;;;8.33;5.33;;;;;17.55;70.77;99054.44;5063486;28;45512;-77
2022/11/17 01:05:14;;;;;;;;;5.67;4.67;;;;;17.64;70.69;99054.22;5041091;28;45478;-77
2022/11/17 01:07:39;;;;;;;;;6.00;4.67;;;;;17.59;70.72;99038.50;5039747;28;45654;-76
2022/11/17 01:10:05;;;;;;;;;8.67;7.33;;;;;17.68;70.66;99067.31;5049162;28;45232;-77
2022/11/17 01:12:31;;;;;;;;;5.67;3.67;;;;;17.65;70.36;99054.19;5037032;28;45435;-77
2022/11/17 01:14:56;;;;;;;;;14.00;6.33;;;;;17.69;70.67;99047.94;5036832;28;45319;-77
2022/11/17 01:17:22;;;;;;;;;5.67;3.33;;;;;17.70;70.36;99027.69;5067979;28;45370;-77
2022/11/17 01:19:48;;;;;;;;;4.67;3.67;;;;;17.67;70.32;99017.19;5036850;28;46228;-76
2022/11/17 01:22:13;;;;;;;;;5.67;4.33;;;;;17.72;70.37;99036.44;5036549;28;45287;-77
2022/11/17 01:24:39;;;;;;;;;6.00;4.33;;;;;17.71;70.32;99032.06;5051277;28;45405;-77
2022/11/17 01:27:04;;;;;;;;;5.67;4.00;;;;;17.57;70.57;99000.69;5037550;28;45550;-77
2022/11/17 01:29:30;;;;;;;;;4.67;3.67;;;;;17.68;70.53;99008.38;5025558;28;46460;-77
2022/11/17 01:31:55;;;;;;;;;9.67;4.00;;;;;17.58;70.83;98999.78;5036416;28;45369;-77
2022/11/17 01:34:21;;;;;;;;;7.00;3.67;;;;;17.61;70.96;99010.28;5036664;28;45531;-75
2022/11/17 01:39:48;;;;;;;;;5.00;4.33;;;;;17.56;71.40;99046.47;4987249;28;46088;-77
2022/11/17 01:42:17;;;;;;;;;7.67;3.67;;;;;17.57;71.39;99042.09;5023138;28;45554;-77
2022/11/17 01:44:48;;;;;;;;;7.67;5.00;;;;;17.57;71.33;99050.00;5049335;28;45295;-77
2022/11/17 01:47:32;;;;;;;;;6.33;3.33;;;;;17.52;71.29;99041.31;5036461;28;45392;-76
2022/11/17 01:50:17;;;;;;;;;5.00;4.33;;;;;17.51;71.38;99043.09;5067237;28;45730;-77
2022/11/17 01:52:43;;;;;;;;;10.00;4.00;;;;;17.49;71.64;99045.75;5042534;28;45521;-76
2022/11/17 01:55:10;;;;;;;;;6.67;2.67;;;;;17.49;71.39;99055.47;5038002;28;45375;-77
2022/11/17 01:58:01;;;;;;;;;8.33;5.00;;;;;17.56;71.86;99070.25;5021856;28;45687;-77
2022/11/17 02:00:28;;;;;;;;;8.33;6.00;;;;;17.52;71.88;99075.63;5034173;28;45520;-77
2022/11/17 02:02:54;;;;;;;;;6.67;5.00;;;;;17.45;71.81;99067.84;5038301;28;45486;-77
2022/11/17 02:05:22;;;;;;;;;5.33;4.33;;;;;17.45;72.45;99075.78;5062149;28;45513;-77
2022/11/17 02:07:51;;;;;;;;;8.00;5.00;;;;;17.40;72.63;99074.13;5029490;28;45537;-77
2022/11/17 02:10:17;;;;;;;;;8.67;5.00;;;;;17.27;72.60;99062.97;5039231;28;46118;-75
2022/11/17 02:12:44;;;;;;;;;8.00;5.33;;;;;17.29;72.84;99075.22;5021843;28;46057;-77
2022/11/17 02:15:10;;;;;;;;;6.00;4.33;;;;;17.33;72.83;99081.31;5047244;28;45709;-77
2022/11/17 02:17:39;;;;;;;;;8.00;5.67;;;;;17.29;72.38;99072.59;5047118;28;45483;-76
2022/11/17 02:20:10;;;;;;;;;6.33;4.00;;;;;17.34;72.44;99084.81;5051700;28;45228;-76
2022/11/17 02:22:57;;;;;;;;;7.00;5.00;;;;;17.35;72.52;99084.78;5024131;28;45336;-77
2022/11/17 02:25:41;;;;;;;;;7.33;5.00;;;;;17.35;72.34;99082.16;5039913;28;45390;-77
2022/11/17 02:28:21;;;;;;;;;9.67;4.67;;;;;17.36;72.56;99080.38;5039866;28;45540;-77
2022/11/17 02:30:59;;;;;;;;;5.67;4.00;;;;;17.39;72.07;99075.00;5042168;28;45467;-77
2022/11/17 02:33:55;;;;;;;;;5.00;3.33;;;;;17.36;72.22;99075.97;5057964;28;45323;-77
2022/11/17 02:36:39;;;;;;;;;10.33;6.00;;;;;17.27;72.42;99058.56;5038561;28;45297;-76
2022/11/17 02:39:21;;;;;;;;;5.00;5.00;;;;;17.28;72.40;99067.34;5039524;28;45563;-77
2022/11/17 02:41:51;;;;;;;;;6.33;4.00;;;;;17.33;72.73;99070.75;5038472;28;46031;-77
2022/11/17 02:44:36;;;;;;;;;7.00;5.67;;;;;17.26;72.56;99069.13;5038662;28;45502;-77
2022/11/17 02:47:21;;;;;;;;;6.00;3.67;;;;;17.33;72.35;99077.78;5038771;28;45417;-75
2022/11/17 02:49:54;;;;;;;;;6.67;3.67;;;;;17.35;72.46;99073.34;5067182;28;45523;-77
2022/11/17 02:52:20;;;;;;;;;6.33;4.00;;;;;17.35;72.27;99061.03;5038698;28;46062;-77
2022/11/17 02:54:46;;;;;;;;;6.00;4.00;;;;;17.35;72.35;99066.31;5038264;28;45414;-75
2022/11/17 02:57:27;;;;;;;;;8.67;4.67;;;;;17.28;72.25;99055.00;5046518;28;45637;-76
2022/11/17 02:59:54;;;;;;;;;6.00;5.00;;;;;17.37;72.28;99069.78;5038269;28;45367;-77
2022/11/17 03:02:37;;;;;;;;;6.33;5.00;;;;;17.36;72.66;99067.19;5038309;28;46176;-77
2022/11/17 03:05:28;;;;;;;;;7.33;4.67;;;;;17.36;72.59;99072.47;5057938;28;45581;-75
2022/11/17 03:08:06;;;;;;;;;6.00;4.67;;;;;17.37;72.33;99058.34;5033760;28;45495;-77
2022/11/17 03:10:55;;;;;;;;;4.00;3.00;;;;;17.35;72.40;99070.69;5038929;28;45375;-77
2022/11/17 03:13:30;;;;;;;;;6.00;4.33;;;;;17.36;72.00;99073.31;5045963;28;45488;-78
2022/11/17 03:16:15;;;;;;;;;6.00;5.00;;;;;17.37;72.12;99082.09;5038065;28;45478;-77
2022/11/17 03:18:57;;;;;;;;;5.00;5.00;;;;;17.36;72.61;99099.72;5038701;28;45648;-77
2022/11/17 03:21:30;;;;;;;;;7.67;5.67;;;;;17.36;73.20;99104.13;5064240;28;45547;-77
2022/11/17 03:24:03;;;;;;;;;10.33;6.00;;;;;17.34;73.93;99106.78;5037952;28;46234;-76
2022/11/17 03:26:35;;;;;;;;;10.33;6.67;;;;;17.30;73.89;99102.47;5051835;28;45244;-77
2022/11/17 03:29:05;;;;;;;;;5.67;3.67;;;;;17.21;74.21;99097.38;5054655;28;45569;-76
2022/11/17 03:31:32;;;;;;;;;8.67;6.00;;;;;17.17;74.55;99093.97;5053771;28;45319;-76
2022/11/17 03:34:02;;;;;;;;;7.67;5.33;;;;;17.19;74.60;99115.91;5037925;28;45439;-77
2022/11/17 03:36:33;;;;;;;;;7.67;5.00;;;;;17.20;74.45;99122.03;5037807;28;45390;-77
2022/11/17 03:39:06;;;;;;;;;7.00;5.00;;;;;17.13;73.83;99100.19;5038246;28;45295;-78
2022/11/17 03:41:38;;;;;;;;;8.67;5.67;;;;;17.03;74.58;99085.41;5053997;28;45649;-78
2022/11/17 03:44:05;;;;;;;;;7.67;3.67;;;;;17.15;74.67;99113.34;5027330;28;46239;-77
2022/11/17 03:46:34;;;;;;;;;6.00;4.67;;;;;17.13;74.48;99110.75;5038199;28;45315;-78
2022/11/17 03:49:19;;;;;;;;;7.00;5.67;;;;;17.04;75.59;99071.34;5037794;28;45623;-77
2022/11/17 03:51:45;;;;;;;;;8.00;5.33;;;;;17.00;75.18;99096.91;5038072;28;45483;-76
2022/11/17 03:54:13;;;;;;;;;8.67;5.00;;;;;16.98;75.45;99095.22;5037930;28;45947;-76
2022/11/17 03:56:47;;;;;;;;;7.33;5.67;;;;;16.98;75.13;99098.72;5040960;28;45436;-76
2022/11/17 03:59:19;;;;;;;;;7.67;4.00;;;;;16.93;75.06;99081.22;5048880;28;45368;-77
2022/11/17 04:01:44;;;;;;;;;7.33;4.00;;;;;16.98;75.12;99097.84;5053195;28;45508;-77
2022/11/17 04:04:15;;;;;;;;;7.67;5.00;;;;;16.97;75.33;99106.66;5039439;28;45538;-76
2022/11/17 04:06:41;;;;;;;;;6.00;4.00;;;;;16.97;75.42;99118.09;5041433;28;45503;-76
2022/11/17 04:09:06;;;;;;;;;6.33;5.33;;;;;16.98;75.40;99109.25;5050613;28;45362;-77
2022/11/17 04:17:00;;;;;;;;;7.00;6.00;;;;;16.86;75.70;99112.13;5052105;28;45228;-76
2022/11/17 04:19:25;;;;;;;;;7.33;4.33;;;;;16.87;75.34;99114.75;5045470;28;45533;-76
2022/11/17 04:21:51;;;;;;;;;7.67;2.67;;;;;16.91;75.32;99118.22;5049550;28;45316;-76
2022/11/17 04:24:17;;;;;;;;;13.33;6.00;;;;;16.83;76.51;99115.72;5055936;28;48154;-77
2022/11/17 04:29:27;;;;;;;;;6.33;3.67;;;;;16.74;75.08;99117.63;5037687;28;45451;-77
2022/11/17 04:31:53;;;;;;;;;6.00;5.00;;;;;16.67;75.01;99111.56;5037554;28;45391;-76
2022/11/17 04:34:18;;;;;;;;;10.33;5.33;;;;;16.67;75.24;99112.44;5036479;28;45581;-77
2022/11/17 04:36:44;;;;;;;;;11.00;6.67;;;;;16.75;75.37;99136.06;5042685;28;45445;-76
2022/11/17 04:39:14;;;;;;;;;11.33;5.00;;;;;16.72;75.50;99119.41;5054988;28;45505;-77
2022/11/17 04:41:52;;;;;;;;;7.33;5.00;;;;;16.71;75.25;99129.06;5043371;28;45508;-77
2022/11/17 04:44:24;;;;;;;;;7.33;5.00;;;;;16.73;75.16;99135.19;5040729;28;45983;-76
2022/11/17 04:46:49;;;;;;;;;12.00;5.33;;;;;16.72;75.29;99138.72;5048098;28;45508;-75
2022/11/17 04:49:17;;;;;;;;;12.67;5.67;;;;;16.69;75.41;99131.75;5036156;28;45231;-76
2022/11/17 04:51:43;;;;;;;;;8.00;6.00;;;;;16.67;75.54;99128.28;5037039;28;45416;-77
2022/11/17 04:54:12;;;;;;;;;8.00;4.00;;;;;16.62;75.44;99132.75;5036531;28;47091;-77
2022/11/17 04:56:38;;;;;;;;;7.67;5.33;;;;;16.63;75.58;99136.25;5045624;28;45434;-78
2022/11/17 04:59:04;;;;;;;;;6.33;3.00;;;;;16.47;76.09;99110.16;5056530;28;45414;-77
2022/11/17 05:01:31;;;;;;;;;7.00;5.33;;;;;16.53;75.72;99121.47;5038381;28;45368;-77
2022/11/17 05:04:01;;;;;;;;;6.00;5.00;;;;;16.56;75.78;99126.72;5037622;28;46923;-77
2022/11/17 05:06:32;;;;;;;;;7.00;4.67;;;;;16.54;76.20;99132.00;5056008;28;47111;-77
2022/11/17 05:09:00;;;;;;;;;7.33;6.00;;;;;16.50;76.31;99130.31;5040921;28;45506;-77
2022/11/17 05:14:14;;;;;;;;;11.00;8.00;;;;;16.49;75.61;99136.47;5036256;28;45877;-76
2022/11/17 05:19:26;;;;;;;;;3.00;2.00;;;;;16.46;75.18;99131.28;5051766;28;45830;-76
2022/11/17 05:21:52;;;;;;;;;6.67;5.33;;;;;16.33;75.33;99122.69;5036489;28;45364;-76
2022/11/17 05:24:18;;;;;;;;;9.67;6.00;;;;;16.43;74.94;99133.94;5048260;28;46187;-76
2022/11/17 05:26:45;;;;;;;;;7.33;5.00;;;;;16.34;74.54;99119.16;5040081;28;45490;-77
2022/11/17 05:29:13;;;;;;;;;6.33;4.67;;;;;16.40;74.36;99126.09;5056396;28;45568;-77
2022/11/17 05:31:38;;;;;;;;;8.67;5.00;;;;;16.32;74.13;99114.81;5036451;28;45784;-77
2022/11/17 05:34:06;;;;;;;;;5.67;3.00;;;;;16.35;74.35;99126.16;5036184;28;45471;-77
2022/11/17 05:36:32;;;;;;;;;6.67;4.33;;;;;16.32;74.11;99128.84;5039355;28;45486;-77
2022/11/17 05:38:58;;;;;;;;;6.00;4.67;;;;;16.30;74.31;99128.88;5036639;28;45477;-77
2022/11/17 05:41:25;;;;;;;;;8.00;5.00;;;;;16.34;74.20;99127.06;5037677;28;45574;-77
2022/11/17 05:43:51;;;;;;;;;6.00;3.67;;;;;16.33;74.10;99133.22;5056565;28;45451;-76
2022/11/17 05:46:17;;;;;;;;;10.33;6.67;;;;;16.33;74.25;99124.44;5053838;28;46250;-77
2022/11/17 05:48:44;;;;;;;;;9.00;5.00;;;;;16.33;74.15;99132.34;5036383;28;45505;-77
2022/11/17 05:51:10;;;;;;;;;5.33;4.00;;;;;16.33;74.22;99140.25;5051764;28;45301;-75
2022/11/17 05:53:36;;;;;;;;;6.33;3.00;;;;;16.20;74.13;99121.16;5036258;28;45543;-77
2022/11/17 05:56:07;;;;;;;;;10.00;6.00;;;;;16.30;74.06;99130.66;5045384;28;47098;-76
2022/11/17 05:58:36;;;;;;;;;8.00;5.00;;;;;16.23;73.65;99116.69;5024229;28;45392;-76
2022/11/17 06:01:04;;;;;;;;;4.67;4.67;;;;;16.29;73.67;99127.16;5037707;28;45567;-75
2022/11/17 06:03:35;;;;;;;;;5.00;4.00;;;;;16.22;73.70;99124.63;5048187;28;46197;-77
2022/11/17 06:06:01;;;;;;;;;8.33;5.00;;;;;16.24;73.73;99136.03;5062788;28;45814;-76
2022/11/17 06:08:28;;;;;;;;;10.33;6.00;;;;;16.23;73.63;99136.91;5040061;28;45552;-75
2022/11/17 06:10:54;;;;;;;;;7.33;5.67;;;;;16.07;74.03;99108.16;5038616;28;45637;-78
2022/11/17 06:13:24;;;;;;;;;4.33;4.00;;;;;16.21;73.51;99130.78;5048524;28;45554;-76
2022/11/17 06:15:55;;;;;;;;;8.33;5.00;;;;;16.13;73.43;99112.44;5035984;28;45588;-75
2022/11/17 06:18:33;;;;;;;;;8.00;4.33;;;;;16.20;73.15;99127.28;5031000;28;45370;-76
2022/11/17 06:20:59;;;;;;;;;3.00;2.33;;;;;16.17;72.88;99134.38;5035864;28;45625;-77
2022/11/17 06:23:28;;;;;;;;;5.00;3.33;;;;;16.14;72.87;99116.84;5045137;28;46184;-76
2022/11/17 06:25:53;;;;;;;;;7.67;4.67;;;;;16.07;72.90;99117.81;5033994;28;45422;-78
2022/11/17 06:28:22;;;;;;;;;6.67;4.00;;;;;16.14;72.25;99129.16;5031904;28;45359;-79
2022/11/17 06:30:48;;;;;;;;;7.33;5.00;;;;;16.21;72.26;99144.81;5041625;28;45435;-79
2022/11/17 06:33:16;;;;;;;;;6.00;4.00;;;;;16.21;71.73;99149.22;5045030;28;46656;-79
2022/11/17 06:35:43;;;;;;;;;7.33;5.67;;;;;16.16;71.46;99143.19;5050993;28;45938;-77
2022/11/17 06:38:08;;;;;;;;;8.33;4.00;;;;;16.22;71.78;99150.97;5039729;28;45518;-77
2022/11/17 06:40:34;;;;;;;;;6.67;4.00;;;;;16.19;71.70;99145.75;5037540;28;45672;-78
2022/11/17 06:43:02;;;;;;;;;9.00;5.00;;;;;16.19;72.07;99151.00;5040267;28;45582;-78
2022/11/17 06:45:33;;;;;;;;;12.00;5.33;;;;;16.17;72.01;99163.34;5044170;28;45440;-75
2022/11/17 06:47:58;;;;;;;;;6.00;4.67;;;;;16.16;72.16;99154.56;5041453;28;45816;-77
2022/11/17 06:50:24;;;;;;;;;10.33;5.00;;;;;16.06;72.40;99139.81;5050954;28;45470;-75
2022/11/17 06:52:50;;;;;;;;;5.00;3.67;;;;;16.13;72.83;99148.47;5039191;28;45661;-76
2022/11/17 06:55:16;;;;;;;;;7.00;4.00;;;;;16.13;72.41;99159.88;5037209;28;45450;-78
2022/11/17 06:57:41;;;;;;;;;8.00;4.00;;;;;16.15;71.95;99165.13;5038428;28;45390;-79
2022/11/17 07:00:07;;;;;;;;;6.33;6.00;;;;;16.15;72.06;99170.41;5038987;28;45320;-77
2022/11/17 07:02:33;;;;;;;;;9.33;4.67;;;;;16.07;71.89;99160.84;5042573;28;45475;-75
2022/11/17 07:04:58;;;;;;;;;5.67;4.33;;;;;16.05;72.18;99159.13;5038341;28;45488;-75
2022/11/17 07:07:24;;;;;;;;;5.33;3.00;;;;;16.13;71.78;99172.19;5039068;28;45352;-76
2022/11/17 07:09:49;;;;;;;;;9.67;3.67;;;;;16.13;71.88;99182.72;5022178;28;45650;-76
2022/11/17 07:12:15;;;;;;;;;8.00;6.33;;;;;16.10;71.76;99168.69;5052565;28;45667;-77
2022/11/17 07:14:41;;;;;;;;;8.00;5.67;;;;;16.10;71.73;99171.34;5020306;28;45502;-79
2022/11/17 07:17:06;;;;;;;;;5.33;4.33;;;;;16.03;71.71;99169.69;5049747;28;45626;-77
2022/11/17 07:19:32;;;;;;;;;7.33;5.00;;;;;16.04;71.90;99174.06;5054602;28;45536;-77
2022/11/17 07:21:58;;;;;;;;;6.00;3.67;;;;;16.02;71.70;99169.72;5037421;28;45384;-73
2022/11/17 07:24:23;;;;;;;;;5.33;4.00;;;;;16.01;71.89;99171.47;5038453;28;45422;-77
2022/11/17 07:26:49;;;;;;;;;8.33;5.33;;;;;16.09;71.77;99172.25;5037225;28;45530;-76
2022/11/17 07:29:14;;;;;;;;;7.00;4.00;;;;;16.08;71.64;99174.91;5038853;28;45229;-77
2022/11/17 07:31:39;;;;;;;;;6.33;3.33;;;;;15.97;71.50;99151.31;5061007;28;46510;-77
2022/11/17 07:34:05;;;;;;;;;8.67;5.00;;;;;16.09;71.14;99174.88;5054331;28;45399;-76
2022/11/17 07:36:32;;;;;;;;;8.00;5.67;;;;;16.16;70.77;99169.53;5040721;28;45404;-77
2022/11/17 07:38:57;;;;;;;;;5.67;3.33;;;;;16.32;70.35;99176.28;5049079;28;45502;-75
2022/11/17 07:41:23;;;;;;;;;8.67;4.33;;;;;16.34;70.04;99171.00;5043238;28;45246;-75
2022/11/17 07:43:48;;;;;;;;;5.00;4.00;;;;;16.27;70.06;99168.47;5042714;28;45382;-77
2022/11/17 07:46:14;;;;;;;;;7.00;5.00;;;;;16.35;70.06;99188.53;5055492;28;45170;-76
2022/11/17 07:48:42;;;;;;;;;5.67;3.00;;;;;16.33;69.79;99185.91;5045681;28;46789;-75
2022/11/17 07:51:07;;;;;;;;;6.00;4.00;;;;;16.33;70.06;99191.19;5047298;28;48320;-75
2022/11/17 07:53:34;;;;;;;;;5.00;4.00;;;;;16.33;69.86;99193.81;5051604;28;45566;-75
2022/11/17 07:56:07;;;;;;;;;4.00;4.00;;;;;16.30;69.96;99192.13;5055830;28;45592;-78
2022/11/17 07:58:33;;;;;;;;;7.00;4.00;;;;;16.34;70.27;99185.03;5061358;28;45608;-78
2022/11/17 08:00:59;;;;;;;;;6.00;4.33;;;;;16.40;69.34;99171.78;5063541;28;45829;-77
2022/11/17 08:03:24;;;;;;;;;5.33;4.00;;;;;16.55;69.22;99156.59;5046206;28;45747;-78
2022/11/17 08:05:50;;;;;;;;;6.00;3.33;;;;;16.92;68.03;99167.41;5075239;27;45606;-79
2022/11/17 08:08:15;;;;;;;;;5.00;4.00;;;;;17.10;67.06;99166.22;5058285;28;45489;-79
2022/11/17 08:10:44;;;;;;;;;2.33;2.00;;;;;17.23;66.82;99165.09;5042399;28;48061;-78
2022/11/17 08:13:10;;;;;;;;;5.67;4.33;;;;;17.16;66.15;99159.94;5042653;28;45420;-78
2022/11/17 08:15:35;;;;;;;;;3.33;2.00;;;;;17.06;66.48;99164.53;5049589;28;45540;-76
2022/11/17 08:18:02;;;;;;;;;7.00;5.00;;;;;16.97;66.90;99156.78;5060843;28;46221;-77
2022/11/17 08:20:28;;;;;;;;;1.00;0.00;;;;;17.00;66.99;99162.00;5057067;28;45987;-76
2022/11/17 08:22:54;;;;;;;;;6.00;2.67;;;;;17.15;66.07;99161.72;5067823;28;45472;-78
2022/11/17 08:25:25;;;;;;;;;9.33;6.00;;;;;17.22;66.32;99144.84;5061855;28;45499;-76
2022/11/17 08:27:54;;;;;;;;;9.00;3.33;;;;;17.38;65.91;99148.06;5061333;28;45554;-72
2022/11/17 08:30:20;;;;;;;;;6.67;4.00;;;;;17.58;65.12;99145.00;5042983;28;46271;-73
2022/11/17 08:32:51;;;;;;;;;5.33;4.33;;;;;17.68;64.59;99146.56;5065871;28;45540;-72
2022/11/17 08:35:20;;;;;;;;;6.67;5.33;;;;;17.68;64.96;99140.41;5065319;28;45500;-70
2022/11/17 08:37:46;;;;;;;;;5.33;3.00;;;;;17.87;63.85;99135.63;5061215;28;45549;-72
2022/11/17 08:40:12;;;;;;;;;4.67;3.33;;;;;18.08;63.44;99152.75;5058401;28;45986;-73
2022/11/17 08:42:38;;;;;;;;;4.00;2.67;;;;;18.12;62.51;99135.06;5054021;28;45677;-73
2022/11/17 08:45:07;;;;;;;;;8.33;4.00;;;;;18.07;62.90;99133.41;5047370;28;45927;-75
2022/11/17 08:47:33;;;;;;;;;5.67;2.67;;;;;18.12;62.62;99159.72;5036883;28;45458;-75
2022/11/17 08:49:58;;;;;;;;;11.00;2.67;;;;;18.00;62.68;99145.00;5036835;28;45472;-74
2022/11/17 08:52:26;;;;;;;;;6.00;2.67;;;;;18.15;62.84;99145.56;5046537;28;45440;-76
2022/11/17 08:54:52;;;;;;;;;7.00;4.33;;;;;18.28;62.21;99149.66;5048526;28;45511;-77
2022/11/17 08:57:20;;;;;;;;;3.33;2.00;;;;;18.34;61.87;99149.50;5035931;28;45541;-73
2022/11/17 08:59:46;;;;;;;;;5.67;3.33;;;;;18.38;61.86;99135.31;5038894;28;46169;-72
2022/11/17 09:02:12;;;;;;;;;6.67;3.00;;;;;18.64;61.20;99139.06;5039222;28;45576;-71
2022/11/17 09:04:38;;;;;;;;;4.33;3.33;;;;;19.55;59.52;99142.78;5075862;27;46912;-75
2022/11/17 09:07:04;;;;;;;;;4.67;3.33;;;;;20.17;58.33;99133.88;5048407;28;45462;-73
2022/11/17 09:09:30;;;;;;;;;3.00;3.00;;;;;20.16;57.46;99136.59;5056549;28;45858;-75
2022/11/17 09:11:56;;;;;;;;;6.33;2.00;;;;;20.17;57.58;99123.25;5062283;28;45433;-78
2022/11/17 09:14:22;;;;;;;;;5.67;2.33;;;;;20.25;56.88;99134.53;5063518;28;45438;-78
2022/11/17 09:16:47;;;;;;;;;5.67;3.00;;;;;20.34;56.38;99138.66;5061159;28;45484;-76
2022/11/17 09:19:14;;;;;;;;;4.33;3.33;;;;;20.36;56.38;99139.47;5060072;28;45487;-76
2022/11/17 09:21:40;;;;;;;;;8.33;4.33;;;;;20.46;56.94;99135.59;5048003;28;45360;-74
2022/11/17 09:24:06;;;;;;;;;6.00;5.00;;;;;20.71;55.86;99129.50;5040651;28;45474;-75
2022/11/17 09:26:31;;;;;;;;;4.00;3.00;;;;;20.71;56.12;99124.19;5052006;28;45561;-73
2022/11/17 09:29:03;;;;;;;;;4.33;2.00;;;;;20.80;54.79;99129.16;5036694;28;45352;-72
2022/11/17 09:31:29;;;;;;;;;7.67;4.33;;;;;20.90;55.36;99137.69;5038220;28;45359;-74
2022/11/17 09:33:55;;;;;;;;;3.67;2.67;;;;;20.89;54.70;99132.41;5036329;28;45568;-74
2022/11/17 09:36:20;;;;;;;;;5.33;3.33;;;;;20.90;54.58;99137.69;5036413;28;45443;-83
2022/11/17 09:38:47;;;;;;;;;6.00;4.67;;;;;20.93;55.09;99131.41;5036165;28;45391;-74
2022/11/17 09:41:15;;;;;;;;;3.00;3.00;;;;;20.86;54.74;99134.25;5036036;28;46045;-74
2022/11/17 09:43:55;;;;;;;;;4.00;2.00;;;;;20.85;54.95;99121.06;5035526;28;45351;-73
2022/11/17 09:46:44;;;;;;;;;3.33;2.33;;;;;21.23;54.66;99119.69;5036427;28;45506;-73
2022/11/17 09:49:32;;;;;;;;;4.33;3.00;;;;;21.44;52.86;99114.53;5018101;28;46994;-72
2022/11/17 09:52:05;;;;;;;;;2.67;2.00;;;;;21.49;53.25;99117.00;5036120;28;45507;-73
2022/11/17 09:55:02;;;;;;;;;3.00;2.00;;;;;21.48;52.27;99117.94;5036670;28;45399;-72
2022/11/17 09:57:47;;;;;;;;;2.33;1.67;;;;;21.62;53.27;99105.84;5033568;28;45394;-72
2022/11/17 10:00:18;;;;;;;;;4.00;2.33;;;;;21.97;52.27;99094.78;5050877;28;46961;-73
2022/11/17 10:02:44;;;;;;;;;4.00;3.00;;;;;22.22;51.36;99092.88;5049302;28;45521;-73
2022/11/17 10:05:31;;;;;;;;;3.00;2.33;;;;;22.40;50.03;99096.59;5037794;28;45424;-73
2022/11/17 10:08:10;;;;;;;;;3.33;3.00;;;;;22.41;49.13;99087.66;5036089;28;46123;-73
2022/11/17 10:10:43;;;;;;;;;4.67;2.00;;;;;22.56;49.87;99103.91;5046107;28;46476;-72
2022/11/17 10:13:16;;;;;;;;;4.33;3.00;;;;;22.73;48.86;99101.41;5038912;28;45543;-73
2022/11/17 10:15:47;;;;;;;;;5.00;4.00;;;;;22.82;46.80;99105.50;5039498;28;45604;-73
2022/11/17 10:18:15;;;;;;;;;4.00;2.33;;;;;23.00;47.62;99130.44;5039804;28;45490;-73
2022/11/17 10:20:42;;;;;;;;;3.00;2.00;;;;;23.13;46.86;99131.66;5039257;28;46413;-75
2022/11/17 10:23:17;;;;;;;;;2.33;2.00;;;;;23.38;46.31;99133.25;5038480;28;45507;-73
2022/11/17 10:25:47;;;;;;;;;4.00;2.00;;;;;23.57;46.33;99158.09;5039757;28;45550;-74
2022/11/17 10:28:26;;;;;;;;;3.33;2.00;;;;;23.44;46.13;99151.63;5039649;28;45516;-74
2022/11/17 10:30:53;;;;;;;;;4.33;3.67;;;;;23.22;45.63;99149.91;5054921;28;45473;-75
2022/11/17 10:33:35;;;;;;;;;5.00;3.00;;;;;23.01;46.24;99148.16;5054742;28;45399;-76
2022/11/17 10:36:04;;;;;;;;;3.33;3.00;;;;;22.89;46.13;99148.69;5039546;28;45320;-77
2022/11/17 10:38:32;;;;;;;;;4.00;3.00;;;;;22.75;46.22;99139.47;5039391;28;45501;-75
2022/11/17 10:41:01;;;;;;;;;3.67;3.00;;;;;22.56;45.80;99150.06;5052121;28;47741;-73
2022/11/17 10:43:36;;;;;;;;;3.00;2.00;;;;;22.32;46.30;99138.63;5036989;28;45359;-73
2022/11/17 10:46:11;;;;;;;;;2.67;1.33;;;;;22.20;46.58;99139.94;5040134;28;45526;-75
2022/11/17 10:48:38;;;;;;;;;3.00;3.00;;;;;22.09;47.77;99138.66;5052705;28;45425;-74
2022/11/17 10:51:18;;;;;;;;;3.33;2.00;;;;;22.10;47.21;99132.38;5042022;28;48052;-78
2022/11/17 10:53:58;;;;;;;;;4.00;3.67;;;;;22.10;47.13;99122.59;5047146;28;45454;-75
2022/11/17 10:56:24;;;;;;;;;2.33;2.00;;;;;21.99;47.44;99096.47;5038523;28;45497;-75
2022/11/17 10:59:13;;;;;;;;;2.33;2.00;;;;;22.11;47.18;99110.19;5058873;28;45731;-76
2022/11/17 11:01:41;;;;;;;;;3.67;3.67;;;;;22.18;47.60;99101.91;5045795;28;45389;-77
2022/11/17 11:04:27;;;;;;;;;7.33;6.33;;;;;22.17;47.29;99089.53;5038350;28;45494;-77
2022/11/17 11:07:09;;;;;;;;;9.00;7.00;;;;;22.20;46.64;99096.50;5054795;28;46422;-77
2022/11/17 11:09:41;;;;;;;;;5.67;5.00;;;;;22.14;47.41;99102.94;5047360;28;45514;-76
2022/11/17 11:12:15;;;;;;;;;5.33;4.00;;;;;22.09;47.65;99091.63;5047427;28;45378;-75
2022/11/17 11:14:57;;;;;;;;;6.00;5.00;;;;;22.04;47.89;99093.59;5054533;28;45581;-76
2022/11/17 11:17:27;;;;;;;;;6.00;3.67;;;;;22.00;48.10;99103.53;5065078;28;45515;-77
2022/11/17 11:19:54;;;;;;;;;14.00;13.00;;;;;21.94;49.07;99082.47;5077573;28;45563;-78
2022/11/17 11:22:47;;;;;;;;;14.00;13.00;;;;;22.03;48.20;99110.50;5043357;28;46384;-77
2022/11/17 11:25:15;;;;;;;;;5.67;3.67;;;;;21.98;48.91;99108.00;5045846;28;45387;-77
2022/11/17 11:28:07;;;;;;;;;4.00;2.00;;;;;21.91;48.27;99109.19;5058132;28;45482;-76
2022/11/17 11:30:40;;;;;;;;;6.33;4.00;;;;;21.84;49.16;99102.38;5055297;28;45450;-77
2022/11/17 11:33:06;;;;;;;;;6.00;5.67;;;;;21.72;48.18;99082.44;5063910;28;47874;-76
2022/11/17 11:35:59;;;;;;;;;7.33;6.00;;;;;21.67;48.96;99094.22;5059382;28;45482;-75
2022/11/17 11:38:48;;;;;;;;;7.33;6.00;;;;;21.65;48.79;99102.25;5056306;28;45474;-73
2022/11/17 11:41:48;;;;;;;;;8.33;7.00;;;;;21.44;48.51;99077.34;5063921;28;45541;-83
2022/11/17 11:44:35;;;;;;;;;9.00;9.00;;;;;21.52;49.10;99104.47;5046751;28;45528;-73
2022/11/17 11:47:06;;;;;;;;;15.33;12.67;;;;;21.54;48.42;99104.44;5059993;28;45671;-74
2022/11/17 11:49:36;;;;;;;;;33.75;30.75;;;;;21.47;49.42;99098.50;5045884;28;45483;-74
2022/11/17 11:52:09;;;;;;;;;6.33;4.67;;;;;21.55;48.24;99100.88;5058109;28;45355;-73
2022/11/17 11:54:46;;;;;;;;;6.33;4.67;;;;;21.67;48.39;99094.22;5065520;28;46963;-75
2022/11/17 11:57:14;;;;;;;;;8.33;5.33;;;;;21.80;47.63;99096.31;5064909;28;45702;-75
2022/11/17 11:59:58;;;;;;;;;7.00;7.00;;;;;22.08;47.18;99091.69;5056196;28;45502;-74
2022/11/17 12:02:52;;;;;;;;;2.33;2.00;;;;;22.57;45.94;99081.72;5061642;28;45462;-74
2022/11/17 12:05:34;;;;;;;;;0.00;0.00;;;;;22.66;45.13;99089.31;5064975;28;45396;-76
2022/11/17 12:08:16;;;;;;;;;2.67;2.00;;;;;22.49;43.65;99062.56;5063256;28;45380;-74
2022/11/17 12:10:47;;;;;;;;;3.00;2.00;;;;;22.52;44.15;99057.97;5071354;28;45608;-74
2022/11/17 12:13:16;;;;;;;;;2.00;1.00;;;;;22.64;44.30;99067.19;5042005;28;45553;-74
2022/11/17 12:15:41;;;;;;;;;3.00;1.33;;;;;22.74;43.74;99057.91;5050813;28;45581;-76